Time;durP1;ratioP1;P1;durP2;ratioP2;P2;SDS_P1;SDS_P2;PMS_P1;PMS_P2;Temp;Humidity;BMP_temperature;BMP_pressure;BME280_temperature;BME280_humidity;BME280_pressure;Samples;Min_cycle;Max_cycle;Signal;HPM_P1;HPM_P2
2022/09/01 00:01:41;;;;;;;1999.90;999.90;;;;;;;17.09;77.69;98844.94;4145996;28;21097;-49
2022/09/01 00:03:45;;;;;;;1999.90;999.90;;;;;;;17.05;77.86;98843.88;4187595;28;20294;-49
2022/09/01 00:05:52;;;;;;;1999.90;999.90;;;;;;;17.00;77.97;98847.47;4154544;28;20201;-49
2022/09/01 00:07:54;;;;;;;1999.90;999.90;;;;;;;16.98;78.25;98837.00;4162462;28;20228;-48
2022/09/01 00:09:57;;;;;;;1999.90;999.90;;;;;;;16.98;78.37;98844.19;4169998;28;20247;-49
2022/09/01 00:12:00;;;;;;;1999.90;999.90;;;;;;;16.98;78.39;98837.84;4187643;28;20632;-50
2022/09/01 00:14:05;;;;;;;1999.90;999.90;;;;;;;16.92;78.68;98833.44;4158431;28;20201;-50
2022/09/01 00:16:23;;;;;;;1999.90;999.90;;;;;;;16.87;78.67;98836.22;4158499;28;20212;-49
2022/09/01 00:18:24;;;;;;;1999.90;999.90;;;;;;;16.86;78.91;98839.25;4162335;28;20261;-51
2022/09/01 00:20:27;;;;;;;1999.90;999.90;;;;;;;16.82;79.10;98839.00;4157954;28;20272;-51
2022/09/01 00:22:28;;;;;;;1999.90;999.90;;;;;;;16.81;79.20;98840.09;4153289;28;20213;-50
2022/09/01 00:24:30;;;;;;;1999.90;999.90;;;;;;;16.81;79.04;98842.88;4157713;28;20209;-50
2022/09/01 00:26:32;;;;;;;1999.90;999.90;;;;;;;16.77;78.84;98829.91;4156487;28;20271;-50
2022/09/01 00:28:36;;;;;;;1999.90;999.90;;;;;;;16.75;78.65;98832.94;4169822;28;20246;-49
2022/09/01 00:30:38;;;;;;;1999.90;999.90;;;;;;;16.75;78.79;98832.94;4170585;28;20262;-54
2022/09/01 00:32:45;;;;;;;1999.90;999.90;;;;;;;16.74;79.01;98836.81;4162239;28;21020;-49
2022/09/01 00:34:47;;;;;;;1999.90;999.90;;;;;;;16.69;79.21;98834.06;4156400;28;20343;-49
2022/09/01 00:36:49;;;;;;;1999.90;999.90;;;;;;;16.66;79.21;98826.34;4139312;28;20245;-51
2022/09/01 00:38:51;;;;;;;1999.90;999.90;;;;;;;16.57;79.44;98830.78;4171856;28;20221;-51
2022/09/01 00:40:53;;;;;;;1999.90;999.90;;;;;;;16.56;79.41;98828.31;4161422;28;20236;-48
2022/09/01 00:42:54;;;;;;;1999.90;999.90;;;;;;;16.55;79.38;98826.66;4169291;28;20298;-49
2022/09/01 00:44:56;;;;;;;1999.90;999.90;;;;;;;16.57;79.25;98830.78;4152963;28;20225;-49
2022/09/01 00:46:58;;;;;;;1999.90;999.90;;;;;;;16.55;79.20;98833.00;4177843;28;20243;-49
2022/09/01 00:49:14;;;;;;;1999.90;999.90;;;;;;;16.54;79.26;98825.81;4156862;28;20249;-49
2022/09/01 00:51:16;;;;;;;1999.90;999.90;;;;;;;16.55;79.11;98827.47;4137847;28;20221;-49
2022/09/01 00:53:18;;;;;;;1999.90;999.90;;;;;;;16.53;78.84;98834.38;4173120;28;20204;-51
2022/09/01 00:55:23;;;;;;;1999.90;999.90;;;;;;;16.48;78.73;98831.63;4158566;28;20258;-49
2022/09/01 00:57:25;;;;;;;1999.90;999.90;;;;;;;16.49;78.47;98828.59;4172533;28;20262;-50
2022/09/01 00:59:28;;;;;;;1999.90;999.90;;;;;;;16.46;78.55;98828.31;4153698;28;20216;-50
2022/09/01 01:01:29;;;;;;;1999.90;999.90;;;;;;;16.42;78.69;98822.53;4158875;28;20209;-48
2022/09/01 01:03:31;;;;;;;1999.90;999.90;;;;;;;16.42;78.65;98821.72;4184018;28;20280;-50
2022/09/01 01:05:39;;;;;;;1999.90;999.90;;;;;;;16.43;78.49;98826.94;4185241;28;20204;-49
2022/09/01 01:07:43;;;;;;;1999.90;999.90;;;;;;;16.44;78.59;98820.31;4168906;28;20228;-50
2022/09/01 01:09:49;;;;;;;1999.90;999.90;;;;;;;16.39;78.86;98817.59;4161281;28;20207;-49
2022/09/01 01:11:51;;;;;;;1999.90;999.90;;;;;;;16.37;78.85;98824.47;4168865;28;20223;-49
2022/09/01 01:13:57;;;;;;;1999.90;999.90;;;;;;;16.32;78.75;98816.19;4172195;28;20201;-49
2022/09/01 01:15:59;;;;;;;1999.90;999.90;;;;;;;16.23;79.32;98824.19;4153428;28;20200;-50
2022/09/01 01:18:01;;;;;;;1999.90;999.90;;;;;;;16.24;79.24;98825.84;4160893;28;20288;-50
2022/09/01 01:24:46;;;;;;;1999.90;999.90;;;;;;;16.12;79.69;98824.50;4171890;28;20208;-49
2022/09/01 01:26:48;;;;;;;1999.90;999.90;;;;;;;16.05;79.96;98816.50;4150770;28;20208;-49
2022/09/01 01:28:53;;;;;;;1999.90;999.90;;;;;;;16.08;79.73;98821.47;4167594;28;20212;-50
2022/09/01 01:31:00;;;;;;;1999.90;999.90;;;;;;;16.11;79.58;98820.94;4149101;28;20204;-50
2022/09/01 01:33:03;;;;;;;1999.90;999.90;;;;;;;16.12;79.61;98821.72;4161425;28;20674;-49
2022/09/01 01:35:05;;;;;;;1999.90;999.90;;;;;;;16.13;79.37;98818.69;4185271;28;20276;-48
2022/09/01 01:37:09;;;;;;;1999.90;999.90;;;;;;;16.14;79.20;98828.63;4154444;28;20690;-51
2022/09/01 01:39:15;;;;;;;1999.90;999.90;;;;;;;16.12;79.31;98816.22;4182898;28;20282;-50
2022/09/01 01:41:20;;;;;;;1999.90;999.90;;;;;;;16.10;79.23;98818.44;4167871;28;20208;-48
2022/09/01 01:43:23;;;;;;;1999.90;999.90;;;;;;;16.10;79.05;98819.25;4144115;28;20265;-50
2022/09/01 01:45:25;;;;;;;1999.90;999.90;;;;;;;16.08;79.01;98818.69;4185791;28;20239;-49
2022/09/01 01:47:27;;;;;;;1999.90;999.90;;;;;;;16.04;78.97;98820.34;4153249;28;20610;-51
2022/09/01 01:49:30;;;;;;;1999.90;999.90;;;;;;;16.03;78.77;98829.75;4170113;28;20231;-49
2022/09/01 01:51:31;;;;;;;1999.90;999.90;;;;;;;15.96;79.46;98829.19;4150828;28;20232;-49
2022/09/01 01:53:34;;;;;;;1999.90;999.90;;;;;;;15.88;79.44;98832.53;4154034;28;20200;-50
2022/09/01 01:55:35;;;;;;;1999.90;999.90;;;;;;;15.87;79.50;98836.38;4168879;28;20203;-49
2022/09/01 01:57:47;;;;;;;1999.90;999.90;;;;;;;15.88;79.55;98831.69;4184870;28;20748;-53
2022/09/01 01:59:49;;;;;;;1999.90;999.90;;;;;;;15.82;79.73;98832.81;4159150;28;20204;-49
2022/09/01 02:01:51;;;;;;;1999.90;999.90;;;;;;;15.74;80.31;98831.41;4159944;28;20263;-49
2022/09/01 02:03:55;;;;;;;1999.90;999.90;;;;;;;15.74;80.06;98831.41;4156540;28;20783;-49
2022/09/01 02:06:06;;;;;;;1999.90;999.90;;;;;;;15.72;80.25;98833.63;4170227;28;20212;-49
2022/09/01 02:08:10;;;;;;;1999.90;999.90;;;;;;;15.46;81.09;98831.94;4152596;28;20228;-50
2022/09/01 02:10:12;;;;;;;1999.90;999.90;;;;;;;15.50;81.32;98830.28;4152743;28;20216;-51
2022/09/01 02:12:17;;;;;;;1999.90;999.90;;;;;;;15.44;81.51;98828.63;4185952;28;20795;-50
2022/09/01 02:14:20;;;;;;;1999.90;999.90;;;;;;;15.49;81.07;98823.13;4161392;28;20196;-49
2022/09/01 02:16:24;;;;;;;1999.90;999.90;;;;;;;15.54;80.98;98828.66;4153574;28;20205;-50
2022/09/01 02:18:33;;;;;;;1999.90;999.90;;;;;;;15.52;81.12;98822.59;4167788;28;20690;-51
2022/09/01 02:20:35;;;;;;;1999.90;999.90;;;;;;;15.53;80.73;98824.22;4160270;28;20631;-50
2022/09/01 02:22:38;;;;;;;1999.90;999.90;;;;;;;15.53;80.78;98826.16;4148578;28;20221;-49
2022/09/01 02:24:45;;;;;;;1999.90;999.90;;;;;;;15.53;80.66;98829.75;4142635;28;20217;-50
2022/09/01 02:26:47;;;;;;;1999.90;999.90;;;;;;;15.51;80.48;98826.41;4159728;28;20217;-49
2022/09/01 02:28:49;;;;;;;1999.90;999.90;;;;;;;15.50;80.53;98824.75;4183937;28;20224;-50
2022/09/01 02:30:58;;;;;;;1999.90;999.90;;;;;;;15.44;80.88;98825.84;4170800;28;20570;-50
2022/09/01 02:33:00;;;;;;;1999.90;999.90;;;;;;;15.40;81.17;98824.75;4150183;28;20307;-49
2022/09/01 02:35:06;;;;;;;1999.90;999.90;;;;;;;15.40;81.08;98813.72;4158177;28;20205;-50
2022/09/01 02:37:07;;;;;;;1999.90;999.90;;;;;;;15.37;81.27;98814.25;4157260;28;20316;-50
2022/09/01 02:39:10;;;;;;;1999.90;999.90;;;;;;;15.40;81.16;98812.91;4152648;28;20201;-49
2022/09/01 02:41:14;;;;;;;1999.90;999.90;;;;;;;15.38;81.06;98815.94;4144723;28;20205;-49
2022/09/01 02:43:19;;;;;;;1999.90;999.90;;;;;;;15.37;80.90;98818.97;4160089;28;20213;-50
2022/09/01 02:45:22;;;;;;;1999.90;999.90;;;;;;;15.33;81.06;98815.94;4154870;28;20209;-50
2022/09/01 02:47:27;;;;;;;1999.90;999.90;;;;;;;15.29;81.12;98816.72;4169186;28;20252;-50
2022/09/01 02:49:30;;;;;;;1999.90;999.90;;;;;;;15.29;81.30;98811.22;4142070;28;20209;-49
2022/09/01 02:51:32;;;;;;;1999.90;999.90;;;;;;;15.27;81.24;98819.75;4137482;28;20221;-49
2022/09/01 02:53:34;;;;;;;1999.90;999.90;;;;;;;15.25;81.32;98821.97;4156305;28;20241;-51
2022/09/01 02:55:38;;;;;;;1999.90;999.90;;;;;;;15.25;81.25;98826.63;4158609;28;20205;-50
2022/09/01 02:57:39;;;;;;;1999.90;999.90;;;;;;;15.22;81.38;98833.50;4155429;28;20232;-49
2022/09/01 02:59:41;;;;;;;1999.90;999.90;;;;;;;15.16;81.30;98826.31;4174401;28;20677;-49
2022/09/01 03:01:46;;;;;;;1999.90;999.90;;;;;;;15.18;81.08;98821.38;4154412;28;20304;-49
2022/09/01 03:03:49;;;;;;;1999.90;999.90;;;;;;;15.19;80.86;98823.03;4161761;28;20219;-50
2022/09/01 03:05:55;;;;;;;1999.90;999.90;;;;;;;15.19;81.12;98820.28;4170421;28;20284;-53
2022/09/01 03:08:00;;;;;;;1999.90;999.90;;;;;;;15.14;81.16;98819.41;4154596;28;20255;-50
2022/09/01 03:10:08;;;;;;;1999.90;999.90;;;;;;;15.14;81.31;98816.66;4174138;28;20208;-50
2022/09/01 03:12:10;;;;;;;1999.90;999.90;;;;;;;15.01;82.11;98819.94;4163148;28;20354;-50
2022/09/01 03:14:12;;;;;;;1999.90;999.90;;;;;;;14.93;82.41;98815.78;4160672;28;20201;-49
2022/09/01 03:16:14;;;;;;;1999.90;999.90;;;;;;;14.95;82.33;98815.50;4184861;28;20208;-51
2022/09/01 03:18:20;;;;;;;1999.90;999.90;;;;;;;14.96;81.93;98812.50;4188148;28;20316;-51
2022/09/01 03:20:22;;;;;;;1999.90;999.90;;;;;;;14.97;81.89;98811.38;4189587;28;20207;-49
2022/09/01 03:22:24;;;;;;;1999.90;999.90;;;;;;;14.97;81.83;98814.13;4162220;28;20213;-50
2022/09/01 03:24:25;;;;;;;1999.90;999.90;;;;;;;14.96;81.71;98818.00;4169665;28;20234;-50
2022/09/01 03:26:28;;;;;;;1999.90;999.90;;;;;;;14.95;81.80;98815.50;4162659;28;20212;-51
2022/09/01 03:28:29;;;;;;;1999.90;999.90;;;;;;;14.88;82.13;98824.03;4145408;28;20229;-49
2022/09/01 03:30:34;;;;;;;1999.90;999.90;;;;;;;14.81;82.32;98826.22;4170514;28;20200;-50
2022/09/01 03:32:36;;;;;;;1999.90;999.90;;;;;;;14.86;82.53;98817.97;4173387;28;20698;-49
2022/09/01 03:34:38;;;;;;;1999.90;999.90;;;;;;;14.73;83.02;98828.66;4187377;28;20218;-52
2022/09/01 03:36:48;;;;;;;1999.90;999.90;;;;;;;14.47;83.89;98830.47;4161986;28;20212;-49
2022/09/01 03:38:51;;;;;;;1999.90;999.90;;;;;;;14.33;84.61;98829.28;4155522;28;20208;-49
2022/09/01 03:40:59;;;;;;;1999.90;999.90;;;;;;;14.41;84.35;98828.78;4167633;28;20298;-49
2022/09/01 03:43:03;;;;;;;1999.90;999.90;;;;;;;14.53;83.81;98826.66;4153480;28;20195;-50
2022/09/01 03:45:08;;;;;;;1999.90;999.90;;;;;;;14.54;83.55;98821.94;4162849;28;20197;-49
2022/09/01 03:47:10;;;;;;;1999.90;999.90;;;;;;;14.61;83.34;98828.88;4170765;28;20233;-49
2022/09/01 03:49:14;;;;;;;1999.90;999.90;;;;;;;14.56;83.16;98828.84;4154290;28;20213;-49
2022/09/01 03:51:17;;;;;;;1999.90;999.90;;;;;;;14.65;82.87;98827.25;4172012;28;20236;-51
2022/09/01 03:53:23;;;;;;;1999.90;999.90;;;;;;;14.66;82.90;98825.31;4171258;28;20228;-50
2022/09/01 03:55:31;;;;;;;1999.90;999.90;;;;;;;14.62;83.43;98822.28;4156484;28;20305;-49
2022/09/01 03:57:33;;;;;;;1999.90;999.90;;;;;;;14.61;83.56;98819.78;4157140;28;20717;-51
2022/09/01 03:59:42;;;;;;;1999.90;999.90;;;;;;;14.65;82.96;98813.50;4187417;28;20211;-50
2022/09/01 04:01:44;;;;;;;1999.90;999.90;;;;;;;14.74;82.87;98813.78;4154294;28;20246;-49
2022/09/01 04:03:47;;;;;;;1999.90;999.90;;;;;;;14.70;82.92;98819.00;4162772;28;20248;-49
2022/09/01 04:05:51;;;;;;;1999.90;999.90;;;;;;;14.70;83.24;98824.50;4152107;28;20280;-49
2022/09/01 04:07:53;;;;;;;1999.90;999.90;;;;;;;14.73;83.20;98821.22;4157137;28;20255;-49
2022/09/01 04:09:55;;;;;;;1999.90;999.90;;;;;;;14.76;83.26;98828.94;4145288;28;20706;-49
2022/09/01 04:11:56;;;;;;;1999.90;999.90;;;;;;;14.81;83.41;98820.72;4160880;28;20217;-49
2022/09/01 04:13:59;;;;;;;1999.90;999.90;;;;;;;14.77;83.65;98825.09;4154664;28;20282;-49
2022/09/01 04:16:01;;;;;;;1999.90;999.90;;;;;;;14.83;83.44;98824.00;4167113;28;20235;-49
2022/09/01 04:18:08;;;;;;;1999.90;999.90;;;;;;;14.90;83.26;98813.56;4186026;28;20223;-50
2022/09/01 04:20:10;;;;;;;1999.90;999.90;;;;;;;14.93;83.40;98815.78;4167294;28;20235;-52
2022/09/01 04:22:13;;;;;;;1999.90;999.90;;;;;;;14.95;83.31;98819.09;4160420;28;20205;-50
2022/09/01 04:24:15;;;;;;;1999.90;999.90;;;;;;;14.99;83.07;98822.97;4185390;28;20211;-49
2022/09/01 04:26:22;;;;;;;1999.90;999.90;;;;;;;15.03;82.92;98823.28;4155641;28;20613;-49
2022/09/01 04:28:34;;;;;;;1999.90;999.90;;;;;;;15.08;83.04;98817.75;4171684;28;20223;-52
2022/09/01 04:30:39;;;;;;;1999.90;999.90;;;;;;;15.08;82.82;98821.34;4160134;28;20247;-50
2022/09/01 04:32:45;;;;;;;1999.90;999.90;;;;;;;15.08;82.43;98815.84;4169247;28;20232;-49
2022/09/01 04:34:47;;;;;;;1999.90;999.90;;;;;;;15.15;82.26;98819.16;4162655;28;20287;-50
2022/09/01 04:36:53;;;;;;;1999.90;999.90;;;;;;;15.14;82.66;98820.25;4185741;28;20223;-51
2022/09/01 04:38:57;;;;;;;1999.90;999.90;;;;;;;15.16;82.79;98820.81;4162041;28;20295;-52
2022/09/01 04:41:06;;;;;;;1999.90;999.90;;;;;;;15.17;82.41;98825.22;4161477;28;20232;-50
2022/09/01 04:43:08;;;;;;;1999.90;999.90;;;;;;;15.22;82.25;98822.47;4187435;28;20195;-49
2022/09/01 04:45:12;;;;;;;1999.90;999.90;;;;;;;15.26;82.48;98815.34;4153400;28;20217;-50
2022/09/01 04:47:28;;;;;;;1999.90;999.90;;;;;;;15.28;82.52;98821.41;4162497;28;20255;-51
2022/09/01 04:49:36;;;;;;;1999.90;999.90;;;;;;;15.31;82.48;98815.31;4172042;28;20212;-49
2022/09/01 04:51:40;;;;;;;1999.90;999.90;;;;;;;15.33;82.48;98813.16;4145145;28;20271;-50
2022/09/01 04:53:47;;;;;;;1999.90;999.90;;;;;;;15.34;82.47;98809.31;4149509;28;20236;-51
2022/09/01 04:55:52;;;;;;;1999.90;999.90;;;;;;;15.35;82.33;98810.97;4168925;28;20627;-50
2022/09/01 04:57:56;;;;;;;1999.90;999.90;;;;;;;15.35;82.51;98804.63;4184797;28;20286;-51
2022/09/01 04:59:58;;;;;;;1999.90;999.90;;;;;;;15.34;82.76;98809.31;4170924;28;20212;-49
2022/09/01 05:02:00;;;;;;;1999.90;999.90;;;;;;;15.36;82.58;98806.28;4185424;28;20215;-51
2022/09/01 05:04:02;;;;;;;1999.90;999.90;;;;;;;15.35;82.41;98799.94;4156520;28;20200;-49
2022/09/01 05:06:04;;;;;;;1999.90;999.90;;;;;;;15.34;82.36;98812.06;4161348;28;20210;-49
2022/09/01 05:08:16;;;;;;;1999.90;999.90;;;;;;;15.33;82.23;98810.41;4145279;28;20221;-49
2022/09/01 05:10:28;;;;;;;1999.90;999.90;;;;;;;15.38;82.15;98807.66;4153898;28;20209;-51
2022/09/01 05:12:30;;;;;;;1999.90;999.90;;;;;;;15.31;82.40;98809.00;4169556;28;20264;-51
2022/09/01 05:14:32;;;;;;;1999.90;999.90;;;;;;;15.17;82.64;98808.69;4154484;28;20205;-49
2022/09/01 05:16:34;;;;;;;1999.90;999.90;;;;;;;15.08;82.86;98810.31;4155703;28;20212;-49
2022/09/01 05:18:38;;;;;;;1999.90;999.90;;;;;;;15.00;83.04;98812.78;4154380;28;20749;-49
2022/09/01 05:20:41;;;;;;;1999.90;999.90;;;;;;;14.87;83.98;98822.38;4160035;28;20601;-49
2022/09/01 05:22:43;;;;;;;1999.90;999.90;;;;;;;14.89;84.04;98822.13;4169955;28;20639;-49
2022/09/01 05:24:45;;;;;;;1999.90;999.90;;;;;;;14.83;84.36;98824.00;4153492;28;20236;-50
2022/09/01 05:26:49;;;;;;;1999.90;999.90;;;;;;;14.93;83.58;98810.28;4160115;28;20217;-49
2022/09/01 05:28:57;;;;;;;1999.90;999.90;;;;;;;14.95;83.61;98816.34;4167235;28;20761;-49
2022/09/01 05:30:59;;;;;;;1999.90;999.90;;;;;;;15.00;83.71;98819.13;4161176;28;20203;-50
2022/09/01 05:33:03;;;;;;;1999.90;999.90;;;;;;;15.03;83.93;98820.50;4155396;28;20239;-50
2022/09/01 05:35:07;;;;;;;1999.90;999.90;;;;;;;15.15;83.23;98821.91;4154154;28;20205;-50
2022/09/01 05:37:11;;;;;;;1999.90;999.90;;;;;;;15.20;83.05;98818.34;4153873;28;20224;-50
2022/09/01 05:39:13;;;;;;;1999.90;999.90;;;;;;;15.27;83.33;98822.50;4153208;28;20205;-49
2022/09/01 05:41:16;;;;;;;1999.90;999.90;;;;;;;15.27;82.99;98819.75;4144711;28;20244;-51
2022/09/01 05:43:18;;;;;;;1999.90;999.90;;;;;;;15.39;82.79;98817.59;4170210;28;20551;-50
2022/09/01 05:45:22;;;;;;;1999.90;999.90;;;;;;;15.33;82.86;98815.94;4153893;28;20200;-50
2022/09/01 05:47:25;;;;;;;1999.90;999.90;;;;;;;15.40;82.46;98819.25;4166090;28;20228;-50
2022/09/01 05:49:27;;;;;;;1999.90;999.90;;;;;;;15.40;81.56;98827.53;4155455;28;20209;-50
2022/09/01 05:51:29;;;;;;;1999.90;999.90;;;;;;;15.46;81.15;98823.69;4157336;28;21260;-49
2022/09/01 05:53:50;;;;;;;1999.90;999.90;;;;;;;15.55;81.26;98833.06;4161167;28;20228;-52
2022/09/01 05:55:56;;;;;;;1999.90;999.90;;;;;;;15.67;81.40;98824.50;4159754;28;20209;-48
2022/09/01 05:57:58;;;;;;;1999.90;999.90;;;;;;;15.73;80.71;98821.50;4152332;28;20232;-48
2022/09/01 06:00:01;;;;;;;1999.90;999.90;;;;;;;15.67;80.41;98830.03;4154516;28;20748;-50
2022/09/01 06:02:02;;;;;;;1999.90;999.90;;;;;;;15.65;80.57;98833.06;4185269;28;20195;-49
2022/09/01 06:04:05;;;;;;;1999.90;999.90;;;;;;;15.76;80.43;98826.44;4159135;28;20205;-49
2022/09/01 06:06:11;;;;;;;1999.90;999.90;;;;;;;15.86;81.54;98829.22;4160753;28;20287;-49
2022/09/01 06:08:13;;;;;;;1999.90;999.90;;;;;;;15.91;82.42;98826.44;4153221;28;20232;-49
2022/09/01 06:10:16;;;;;;;1999.90;999.90;;;;;;;16.05;82.31;98827.56;4156028;28;20288;-49
2022/09/01 06:12:21;;;;;;;1999.90;999.90;;;;;;;16.31;80.76;98826.41;4160372;28;20201;-51
2022/09/01 06:14:23;;;;;;;1999.90;999.90;;;;;;;16.30;79.64;98823.94;4149730;28;20256;-51
2022/09/01 06:16:27;;;;;;;1999.90;999.90;;;;;;;16.65;80.72;98829.38;4166384;28;20292;-49
2022/09/01 06:18:33;;;;;;;1999.90;999.90;;;;;;;16.98;80.91;98826.78;4150668;28;20260;-49
2022/09/01 06:20:39;;;;;;;1999.90;999.90;;;;;;;17.23;78.99;98830.22;4150605;28;20205;-49
2022/09/01 06:22:40;;;;;;;1999.90;999.90;;;;;;;17.32;78.03;98822.16;4172665;28;21239;-49
2022/09/01 06:24:42;;;;;;;1999.90;999.90;;;;;;;17.08;75.61;98824.78;4159165;28;20325;-49
2022/09/01 06:26:47;;;;;;;1999.90;999.90;;;;;;;17.43;77.18;98832.06;4173699;28;20658;-48
2022/09/01 06:28:53;;;;;;;1999.90;999.90;;;;;;;17.63;76.20;98829.16;4154646;28;20209;-49
2022/09/01 06:30:56;;;;;;;1999.90;999.90;;;;;;;17.63;75.41;98827.22;4169212;28;20200;-50
2022/09/01 06:33:00;;;;;;;1999.90;999.90;;;;;;;18.02;75.94;98830.78;4185610;28;22043;-49
2022/09/01 06:35:04;;;;;;;1999.90;999.90;;;;;;;18.41;73.61;98841.81;4157569;28;20209;-50
2022/09/01 06:37:06;;;;;;;1999.90;999.90;;;;;;;18.67;73.64;98841.25;4164412;28;20231;-49
2022/09/01 06:39:13;;;;;;;1999.90;999.90;;;;;;;18.68;71.95;98836.53;4155478;28;20208;-50
2022/09/01 06:41:16;;;;;;;1999.90;999.90;;;;;;;18.74;72.04;98840.91;4139214;28;20750;-49
2022/09/01 06:43:18;;;;;;;1999.90;999.90;;;;;;;19.05;71.27;98847.75;4160121;28;20201;-49
2022/09/01 06:45:23;;;;;;;1999.90;999.90;;;;;;;19.46;69.78;98838.59;4157769;28;20686;-49
2022/09/01 06:47:27;;;;;;;1999.90;999.90;;;;;;;19.50;69.37;98838.81;4172797;28;20231;-48
2022/09/01 06:49:31;;;;;;;1999.90;999.90;;;;;;;19.02;70.00;98840.00;4159539;28;20205;-49
2022/09/01 06:51:33;;;;;;;1999.90;999.90;;;;;;;18.98;71.09;98841.72;4158251;28;21160;-48
2022/09/01 06:53:35;;;;;;;1439.80;697.33;;;;;;;18.47;70.74;98846.19;4189273;28;20223;-48
2022/09/01 06:55:40;;;;;;;1999.90;999.90;;;;;;;18.34;71.73;98849.66;4190421;28;20281;-49
2022/09/01 06:57:50;;;;;;;1999.90;999.90;;;;;;;17.97;72.25;98849.38;4173982;28;20223;-48
2022/09/01 07:00:16;;;;;;;1999.90;999.90;;;;;;;18.23;71.80;98848.03;4156350;28;20244;-49
2022/09/01 07:02:20;;;;;;;1999.90;999.90;;;;;;;18.24;72.44;98852.50;4169177;28;20233;-48
2022/09/01 07:04:29;;;;;;;1999.90;999.90;;;;;;;18.11;73.14;98853.16;4163232;28;20196;-48
2022/09/01 07:06:30;;;;;;;1999.90;999.90;;;;;;;18.37;73.18;98849.03;4169255;28;20266;-48
2022/09/01 07:08:54;;;;;;;1999.90;999.90;;;;;;;18.69;71.32;98849.28;4160700;28;20247;-49
2022/09/01 07:11:22;;;;;;;1999.90;999.90;;;;;;;19.11;71.00;98852.13;4144193;28;20620;-48
2022/09/01 07:13:44;;;;;;;1999.90;999.90;;;;;;;19.25;70.32;98853.06;4187077;28;20934;-49
2022/09/01 07:16:06;;;;;;;1999.90;999.90;;;;;;;19.25;69.13;98858.63;4159738;28;20279;-48
2022/09/01 07:18:30;;;;;;;1999.90;999.90;;;;;;;19.21;70.00;98857.53;4163483;28;20231;-50
2022/09/01 07:20:37;;;;;;;1999.90;999.90;;;;;;;19.08;69.91;98863.78;4159491;28;20213;-49
2022/09/01 07:22:59;;;;;;;1999.90;999.90;;;;;;;18.47;71.71;98860.03;4161826;28;20238;-49
2022/09/01 07:25:09;;;;;;;1999.90;999.90;;;;;;;18.22;72.68;98854.72;4164778;28;20205;-49
2022/09/01 07:27:12;;;;;;;1999.90;999.90;;;;;;;18.16;72.96;98861.41;4192394;28;20286;-49
2022/09/01 07:29:21;;;;;;;1999.90;999.90;;;;;;;18.09;73.18;98866.47;4161620;28;20212;-48
2022/09/01 07:31:30;;;;;;;1999.90;999.90;;;;;;;17.91;73.65;98861.66;4170377;28;20413;-48
2022/09/01 07:33:53;;;;;;;1999.90;999.90;;;;;;;18.04;74.09;98866.53;4167266;28;20247;-48
2022/09/01 07:36:18;;;;;;;1999.90;999.90;;;;;;;18.11;74.41;98865.06;4158975;28;20217;-48
2022/09/01 07:38:29;;;;;;;1999.90;999.90;;;;;;;18.45;73.59;98865.06;4155766;28;20231;-48
2022/09/01 07:40:53;;;;;;;1999.90;999.90;;;;;;;18.69;72.90;98872.28;4165142;28;20228;-48
2022/09/01 07:43:21;;;;;;;1999.90;999.90;;;;;;;18.69;72.90;98865.91;4164675;28;20235;-49
2022/09/01 07:45:24;;;;;;;1999.90;999.90;;;;;;;19.06;72.17;98868.81;4158746;28;20212;-48
2022/09/01 07:47:28;;;;;;;1999.90;999.90;;;;;;;19.06;72.15;98866.03;4171474;28;20271;-49
2022/09/01 07:49:49;;;;;;;1999.90;999.90;;;;;;;19.35;72.20;98869.56;4162121;28;20690;-47
2022/09/01 07:52:11;;;;;;;1999.90;999.90;;;;;;;19.31;71.37;98876.84;4148091;28;20294;-49
2022/09/01 07:54:14;;;;;;;1999.90;999.90;;;;;;;19.35;71.11;98875.13;4171412;28;20224;-48
2022/09/01 07:56:18;;;;;;;1999.90;999.90;;;;;;;19.24;71.82;98879.16;4163452;28;20296;-49
2022/09/01 07:58:22;;;;;;;1999.90;999.90;;;;;;;18.78;73.24;98875.25;4153047;28;20225;-48
2022/09/01 08:00:25;;;;;;;1999.90;999.90;;;;;;;18.76;72.91;98877.47;4161090;28;20205;-47
2022/09/01 08:02:32;;;;;;;1999.90;999.90;;;;;;;18.95;72.94;98875.59;4170330;28;20203;-49
2022/09/01 08:04:34;;;;;;;1999.90;999.90;;;;;;;18.91;73.48;98869.00;4162412;28;20256;-49
2022/09/01 08:06:37;;;;;;;1999.90;999.90;;;;;;;18.95;73.29;98878.38;4170721;28;20203;-49
2022/09/01 08:08:40;;;;;;;1999.90;999.90;;;;;;;19.18;72.78;98885.88;4157602;28;20312;-49
2022/09/01 08:10:43;;;;;;;1999.90;999.90;;;;;;;19.34;71.69;98884.56;4174281;28;20204;-51
2022/09/01 08:12:45;;;;;;;1999.90;999.90;;;;;;;18.96;72.61;98877.25;4162864;28;20231;-49
2022/09/01 08:14:51;;;;;;;1999.90;999.90;;;;;;;19.52;71.12;98886.56;4172884;28;20668;-48
2022/09/01 08:17:13;;;;;;;1999.90;999.90;;;;;;;19.80;70.68;98877.25;4149378;28;20228;-49
2022/09/01 08:19:18;;;;;;;1999.90;999.90;;;;;;;19.76;70.20;98876.19;4141609;28;20209;-52
2022/09/01 08:21:22;;;;;;;1999.90;999.90;;;;;;;19.22;71.11;98885.00;4153823;28;20282;-51
2022/09/01 08:23:26;;;;;;;1999.90;999.90;;;;;;;19.62;70.70;98878.06;4157007;28;20593;-52
2022/09/01 08:25:28;;;;;;;1999.90;999.90;;;;;;;20.05;70.00;98871.31;4162630;28;20208;-52
2022/09/01 08:27:32;;;;;;;1999.90;999.90;;;;;;;20.16;68.92;98870.88;4152787;28;20248;-51
2022/09/01 08:29:33;;;;;;;1999.90;999.90;;;;;;;20.59;68.49;98872.31;4162293;28;20209;-50
2022/09/01 08:31:35;;;;;;;1999.90;999.90;;;;;;;21.04;67.87;98871.47;4160189;28;20224;-51
2022/09/01 08:33:38;;;;;;;1999.90;999.90;;;;;;;21.42;66.53;98877.63;4158607;28;20711;-51
2022/09/01 08:35:42;;;;;;;1999.90;999.90;;;;;;;21.30;65.60;98874.59;4156229;28;20212;-52
2022/09/01 08:37:44;;;;;;;1614.80;814.42;;;;;;;21.24;65.33;98871.06;4170407;28;20219;-51
2022/09/01 08:39:46;;;;;;;1999.90;999.90;;;;;;;21.54;65.01;98875.16;4160696;28;20216;-51
2022/09/01 08:41:49;;;;;;;1859.47;939.20;;;;;;;22.07;64.57;98884.53;4162631;28;20682;-50
2022/09/01 08:44:29;;;;;;;1872.72;940.67;;;;;;;21.66;64.63;98869.88;4156470;28;20649;-50
2022/09/01 08:46:36;;;;;;;1915.40;999.90;;;;;;;22.01;63.53;98871.84;4146386;28;20220;-51
2022/09/01 08:48:45;;;;;;;1999.90;999.90;;;;;;;22.25;63.79;98880.75;4159687;28;20231;-51
2022/09/01 08:51:24;;;;;;;1867.82;971.25;;;;;;;22.51;63.68;98874.22;4157935;28;20753;-51
2022/09/01 08:53:37;;;;;;;1999.90;999.90;;;;;;;22.38;63.79;98880.66;4154690;28;20212;-51
2022/09/01 08:55:44;;;;;;;1999.90;999.90;;;;;;;21.69;64.07;98872.88;4160546;28;20646;-51
2022/09/01 08:57:50;;;;;;;1871.90;951.58;;;;;;;21.58;65.81;98881.75;4137813;28;20760;-52
2022/09/01 08:59:59;;;;;;;1999.90;999.90;;;;;;;20.89;66.76;98882.91;4157955;28;20208;-50
2022/09/01 09:02:10;;;;;;;1999.90;999.90;;;;;;;21.11;66.17;98874.66;4168361;28;20203;-50
2022/09/01 09:04:25;;;;;;;1715.43;866.40;;;;;;;21.20;65.54;98885.91;4180630;28;20218;-52
2022/09/01 09:06:36;;;;;;;1999.90;999.90;;;;;;;20.98;66.28;98877.47;4152282;28;20213;-50
2022/09/01 09:09:06;;;;;;;1999.90;999.90;;;;;;;21.01;66.55;98882.41;4161947;28;20274;-51
2022/09/01 09:11:10;;;;;;;1999.90;999.90;;;;;;;20.94;66.70;98881.97;4181570;28;20295;-51
2022/09/01 09:13:16;;;;;;;1999.90;999.90;;;;;;;21.11;66.00;98877.44;4150464;28;20585;-52
2022/09/01 09:15:40;;;;;;;1999.90;999.90;;;;;;;21.24;66.40;98878.59;4163857;28;20216;-52
2022/09/01 09:17:52;;;;;;;1559.40;759.35;;;;;;;21.61;65.60;98883.91;4147853;28;20228;-51
2022/09/01 09:20:00;;;;;;;1999.90;999.90;;;;;;;21.87;64.87;98885.00;4150303;28;20605;-50
2022/09/01 09:22:09;;;;;;;1999.90;999.90;;;;;;;22.51;64.07;98881.78;4157273;28;20255;-51
2022/09/01 09:24:17;;;;;;;1933.22;999.90;;;;;;;21.24;64.69;98886.97;4183702;28;20209;-51